South Lake Tahoe, CA (96150)

3:24 PM PDT on September 02, 2014 (GMT -0700)
North Upper Truckee | Change Station
CLOSE
Current Station
Personal Weather Station
Location: South Lake Tahoe, CA
Elevation: 6549 ft
Nearby Weather Stations

Elev 6549 ft 38.86 °N, 120.04 °W | Updated 4 seconds ago

Clear
Clear
80.0 °F
Feels Like 79 °F
N
2.8
Wind Variable Wind from WNW
Gusts 4.0 mph

Today
High -- | Low -- °F
--% Chance of Precip.
Yesterday
High -- | Low -- °F
Precip. -- in
6:30 AM 7:28 PM
First Quarter, 55% visible
Pressure 29.88 in
Visibility 10.0 miles
Clouds Clear
Heat Index 79 °F
Dew Point 38 °F
Humidity 22%
Rainfall 0.00 in
Snow Depth 0 in
UV 8 out of 12
Pollen 8.20 out of 12
Air Quality Not available.
Flu Activity Not available.
METAR KTVL 022153Z AUTO 20009G26KT 10SM CLR 28/M01 A3007 RMK AO2 PK WND 33026/2145 SLP118 T02831006

More Conditions Fewer Conditions

Pressure 29.88 in
Visibility 10.0 miles
Clouds Clear
Heat Index 79 °F
Dew Point 38 °F
Humidity 22%
Rainfall 0.00 in
Snow Depth 0 in
UV 8 out of 12
Pollen 8.20 out of 12
Air Quality Not available.
Flu Activity Not available.
METAR KTVL 022153Z AUTO 20009G26KT 10SM CLR 28/M01 A3007 RMK AO2 PK WND 33026/2145 SLP118 T02831006

More Conditions Fewer Conditions

10-Day Weather Forecast

Almanac

Astronomy

Sep. 02, 2014 Rise Set
Actual Time 6:30 AM PDT 7:28 PM PDT
Civil Twilight 6:02 AM PDT 7:55 PM PDT
Nautical Twilight 5:30 AM PDT 8:28 PM PDT
Astronomical Twilight 4:56 AM PDT 9:01 PM PDT
Moon 2:15 PM PDT No Moon Set
Length of Visible Light 13h 53m
Length of Day
12h 58m
Tomorrow will be 2m 27s shorter.
First Quarter, 55% of the Moon is Illuminated
Today
First Quarter
Sep 8
Full
Sep 15
Last Quarter
Sep 24
New
Oct 1
First Quarter

Today's Extremes

State Highs State Lows

Community

WunderPhotos

Upload Photos

1,749,788 photos uploaded!

Nearby

Snow Depth

Station Depth Elevation
Fallen Leaf 0 in 6300 ft
CSS Lab 1 in 6900 ft
Summit Meadow 0 in 9122 ft
Leavitt Meadows 0 in 7200 ft
Adin Mountain 0 in 6200 ft

Earthquake Activity

City Distance Mag. Time & Date
Gilroy, California 152 miles 3.5 9:10 AM PDT
2014-09-01
Minimum magnitude displayed is 2.5.

Coastal Water Temperatures

Place Temperature
No Stations Reporting

Nearby Weather Stations